sensor_id;sensor_type;location;lat;lon;timestamp;pressure;altitude;pressure_sealevel;temperature;humidity
62055;BME280;48653;51.742;-1.256;2022-07-24T00:00:35;100974.99;;;19.33;50.31
62055;BME280;48653;51.742;-1.256;2022-07-24T00:03:02;100975.17;;;19.17;50.00
62055;BME280;48653;51.742;-1.256;2022-07-24T00:05:29;100969.96;;;19.46;49.93
62055;BME280;48653;51.742;-1.256;2022-07-24T00:07:57;100973.82;;;19.41;49.53
62055;BME280;48653;51.742;-1.256;2022-07-24T00:10:25;100963.61;;;19.54;49.80
62055;BME280;48653;51.742;-1.256;2022-07-24T00:12:58;100964.32;;;19.21;50.39
62055;BME280;48653;51.742;-1.256;2022-07-24T00:15:26;100966.30;;;19.45;49.83
62055;BME280;48653;51.742;-1.256;2022-07-24T00:17:56;100965.12;;;19.51;49.36
62055;BME280;48653;51.742;-1.256;2022-07-24T00:20:24;100971.24;;;19.55;49.74
62055;BME280;48653;51.742;-1.256;2022-07-24T00:22:51;100972.06;;;19.16;49.88
62055;BME280;48653;51.742;-1.256;2022-07-24T00:25:19;100965.50;;;19.41;49.02
62055;BME280;48653;51.742;-1.256;2022-07-24T00:27:46;100966.32;;;19.57;49.18
62055;BME280;48653;51.742;-1.256;2022-07-24T00:30:13;100964.29;;;19.23;49.49
62055;BME280;48653;51.742;-1.256;2022-07-24T00:32:46;100964.03;;;19.50;49.35
62055;BME280;48653;51.742;-1.256;2022-07-24T00:35:14;100962.57;;;19.71;49.41
62055;BME280;48653;51.742;-1.256;2022-07-24T00:37:41;100963.41;;;19.72;48.54
62055;BME280;48653;51.742;-1.256;2022-07-24T00:40:09;100967.47;;;19.81;48.37
62055;BME280;48653;51.742;-1.256;2022-07-24T00:42:36;100963.34;;;19.75;48.85
62055;BME280;48653;51.742;-1.256;2022-07-24T00:45:03;100959.74;;;19.76;48.50
62055;BME280;48653;51.742;-1.256;2022-07-24T00:47:31;100954.02;;;19.65;48.93
62055;BME280;48653;51.742;-1.256;2022-07-24T00:49:58;100953.95;;;19.49;49.25
62055;BME280;48653;51.742;-1.256;2022-07-24T00:52:25;100948.48;;;19.74;48.71
62055;BME280;48653;51.742;-1.256;2022-07-24T00:54:52;100942.15;;;19.55;48.91
62055;BME280;48653;51.742;-1.256;2022-07-24T00:57:19;100939.36;;;19.84;48.16
62055;BME280;48653;51.742;-1.256;2022-07-24T00:59:46;100947.25;;;19.83;48.54
62055;BME280;48653;51.742;-1.256;2022-07-24T01:02:13;100937.76;;;19.58;48.73
62055;BME280;48653;51.742;-1.256;2022-07-24T01:04:41;100938.78;;;19.73;48.94
62055;BME280;48653;51.742;-1.256;2022-07-24T01:07:08;100935.72;;;19.53;48.51
62055;BME280;48653;51.742;-1.256;2022-07-24T01:09:36;100936.45;;;19.38;49.38
62055;BME280;48653;51.742;-1.256;2022-07-24T01:12:04;100930.24;;;19.46;49.27
62055;BME280;48653;51.742;-1.256;2022-07-24T01:14:31;100919.75;;;19.24;49.15
62055;BME280;48653;51.742;-1.256;2022-07-24T01:16:58;100920.58;;;19.51;48.57
62055;BME280;48653;51.742;-1.256;2022-07-24T01:19:26;100922.89;;;19.33;49.32
62055;BME280;48653;51.742;-1.256;2022-07-24T01:21:54;100914.07;;;19.17;48.81
62055;BME280;48653;51.742;-1.256;2022-07-24T01:24:21;100914.95;;;19.66;48.76
62055;BME280;48653;51.742;-1.256;2022-07-24T01:26:48;100913.71;;;19.48;48.45
62055;BME280;48653;51.742;-1.256;2022-07-24T01:29:16;100911.55;;;19.49;48.09
62055;BME280;48653;51.742;-1.256;2022-07-24T01:31:44;100911.35;;;19.52;48.36
62055;BME280;48653;51.742;-1.256;2022-07-24T01:34:11;100905.74;;;19.30;48.68
62055;BME280;48653;51.742;-1.256;2022-07-24T01:36:40;100905.16;;;19.73;48.73
62055;BME280;48653;51.742;-1.256;2022-07-24T01:39:07;100904.29;;;19.60;48.09
62055;BME280;48653;51.742;-1.256;2022-07-24T01:41:34;100904.21;;;20.02;47.76
62055;BME280;48653;51.742;-1.256;2022-07-24T01:44:01;100906.39;;;19.82;48.07
62055;BME280;48653;51.742;-1.256;2022-07-24T01:46:29;100904.81;;;19.62;48.40
62055;BME280;48653;51.742;-1.256;2022-07-24T01:48:56;100906.44;;;19.06;49.13
62055;BME280;48653;51.742;-1.256;2022-07-24T01:51:23;100907.14;;;19.38;48.92
62055;BME280;48653;51.742;-1.256;2022-07-24T01:53:53;100899.26;;;19.54;48.76
62055;BME280;48653;51.742;-1.256;2022-07-24T01:56:20;100903.44;;;19.82;49.12
62055;BME280;48653;51.742;-1.256;2022-07-24T01:58:47;100897.45;;;19.72;49.62
62055;BME280;48653;51.742;-1.256;2022-07-24T02:01:14;100896.79;;;19.76;49.72
62055;BME280;48653;51.742;-1.256;2022-07-24T02:03:41;100890.88;;;19.94;49.50
62055;BME280;48653;51.742;-1.256;2022-07-24T02:06:08;100889.77;;;19.83;49.87
62055;BME280;48653;51.742;-1.256;2022-07-24T02:08:35;100891.88;;;19.59;50.08
62055;BME280;48653;51.742;-1.256;2022-07-24T02:11:03;100896.08;;;19.21;51.10
62055;BME280;48653;51.742;-1.256;2022-07-24T02:13:30;100894.14;;;18.86;51.80
62055;BME280;48653;51.742;-1.256;2022-07-24T02:15:58;100891.10;;;19.24;51.69
62055;BME280;48653;51.742;-1.256;2022-07-24T02:18:27;100892.66;;;19.11;52.27
62055;BME280;48653;51.742;-1.256;2022-07-24T02:20:56;100889.48;;;19.33;51.93
62055;BME280;48653;51.742;-1.256;2022-07-24T02:23:23;100891.47;;;18.86;51.74
62055;BME280;48653;51.742;-1.256;2022-07-24T02:25:50;100891.55;;;19.49;51.62
62055;BME280;48653;51.742;-1.256;2022-07-24T02:28:18;100890.44;;;18.71;52.63
62055;BME280;48653;51.742;-1.256;2022-07-24T02:30:45;100890.05;;;19.48;52.09
62055;BME280;48653;51.742;-1.256;2022-07-24T02:33:13;100888.81;;;19.53;51.81
62055;BME280;48653;51.742;-1.256;2022-07-24T02:35:40;100892.06;;;19.39;52.01
62055;BME280;48653;51.742;-1.256;2022-07-24T02:38:09;100889.19;;;19.19;52.71
62055;BME280;48653;51.742;-1.256;2022-07-24T02:40:36;100888.35;;;19.10;52.83
62055;BME280;48653;51.742;-1.256;2022-07-24T02:43:03;100888.25;;;19.19;52.15
62055;BME280;48653;51.742;-1.256;2022-07-24T02:45:30;100890.66;;;19.48;52.36
62055;BME280;48653;51.742;-1.256;2022-07-24T02:47:58;100886.54;;;19.53;51.93
62055;BME280;48653;51.742;-1.256;2022-07-24T02:50:29;100886.60;;;19.15;51.64
62055;BME280;48653;51.742;-1.256;2022-07-24T02:52:57;100884.85;;;19.31;52.07
62055;BME280;48653;51.742;-1.256;2022-07-24T02:55:24;100886.46;;;19.25;52.42
62055;BME280;48653;51.742;-1.256;2022-07-24T02:57:51;100888.07;;;19.37;53.20
62055;BME280;48653;51.742;-1.256;2022-07-24T03:00:19;100886.61;;;19.35;52.78
62055;BME280;48653;51.742;-1.256;2022-07-24T03:02:46;100884.32;;;19.40;52.48
62055;BME280;48653;51.742;-1.256;2022-07-24T03:05:14;100888.81;;;19.16;52.95
62055;BME280;48653;51.742;-1.256;2022-07-24T03:07:41;100887.21;;;19.04;53.22
62055;BME280;48653;51.742;-1.256;2022-07-24T03:10:11;100890.11;;;19.24;53.09
62055;BME280;48653;51.742;-1.256;2022-07-24T03:12:39;100887.10;;;19.29;52.91
62055;BME280;48653;51.742;-1.256;2022-07-24T03:15:07;100888.46;;;19.29;53.05
62055;BME280;48653;51.742;-1.256;2022-07-24T03:17:35;100884.01;;;19.23;52.81
62055;BME280;48653;51.742;-1.256;2022-07-24T03:20:05;100885.36;;;19.37;52.68
62055;BME280;48653;51.742;-1.256;2022-07-24T03:22:33;100885.19;;;18.86;53.27
62055;BME280;48653;51.742;-1.256;2022-07-24T03:24:59;100878.65;;;19.16;52.98
62055;BME280;48653;51.742;-1.256;2022-07-24T03:27:26;100877.80;;;19.07;53.04
62055;BME280;48653;51.742;-1.256;2022-07-24T03:29:54;100885.94;;;19.09;53.11
62055;BME280;48653;51.742;-1.256;2022-07-24T03:32:21;100882.88;;;18.92;53.12
62055;BME280;48653;51.742;-1.256;2022-07-24T03:34:48;100888.00;;;19.03;53.41
62055;BME280;48653;51.742;-1.256;2022-07-24T03:37:15;100891.17;;;18.91;54.10
62055;BME280;48653;51.742;-1.256;2022-07-24T03:39:42;100884.11;;;18.49;54.77
62055;BME280;48653;51.742;-1.256;2022-07-24T03:42:09;100882.46;;;18.38;54.32
62055;BME280;48653;51.742;-1.256;2022-07-24T03:44:36;100872.91;;;18.78;55.13
62055;BME280;48653;51.742;-1.256;2022-07-24T03:47:04;100862.70;;;18.62;54.53
62055;BME280;48653;51.742;-1.256;2022-07-24T03:49:36;100863.39;;;18.67;54.06
62055;BME280;48653;51.742;-1.256;2022-07-24T03:52:05;100868.02;;;19.04;54.26
62055;BME280;48653;51.742;-1.256;2022-07-24T03:54:32;100869.51;;;19.00;53.67
62055;BME280;48653;51.742;-1.256;2022-07-24T03:57:00;100872.72;;;18.84;53.75
62055;BME280;48653;51.742;-1.256;2022-07-24T03:59:27;100870.26;;;18.88;54.37
62055;BME280;48653;51.742;-1.256;2022-07-24T04:01:55;100865.94;;;18.91;54.31
62055;BME280;48653;51.742;-1.256;2022-07-24T04:04:22;100872.27;;;18.88;54.28
62055;BME280;48653;51.742;-1.256;2022-07-24T04:06:49;100874.35;;;18.35;54.94
62055;BME280;48653;51.742;-1.256;2022-07-24T04:09:16;100869.15;;;18.47;55.33
62055;BME280;48653;51.742;-1.256;2022-07-24T04:11:43;100860.67;;;18.85;54.54
62055;BME280;48653;51.742;-1.256;2022-07-24T04:14:10;100856.94;;;18.89;54.73
62055;BME280;48653;51.742;-1.256;2022-07-24T04:16:37;100856.57;;;18.44;55.12
62055;BME280;48653;51.742;-1.256;2022-07-24T04:19:05;100855.42;;;18.57;55.10
62055;BME280;48653;51.742;-1.256;2022-07-24T04:21:32;100854.02;;;18.82;54.54
62055;BME280;48653;51.742;-1.256;2022-07-24T04:24:02;100860.43;;;18.76;54.62
62055;BME280;48653;51.742;-1.256;2022-07-24T04:26:28;100859.65;;;18.59;54.79
62055;BME280;48653;51.742;-1.256;2022-07-24T04:28:55;100862.68;;;18.85;54.85
62055;BME280;48653;51.742;-1.256;2022-07-24T04:31:23;100867.78;;;18.78;54.67
62055;BME280;48653;51.742;-1.256;2022-07-24T04:33:50;100863.08;;;18.74;54.62
62055;BME280;48653;51.742;-1.256;2022-07-24T04:36:18;100860.84;;;18.91;54.36
62055;BME280;48653;51.742;-1.256;2022-07-24T04:38:45;100860.84;;;18.79;54.45
62055;BME280;48653;51.742;-1.256;2022-07-24T04:41:12;100855.06;;;18.73;54.91
62055;BME280;48653;51.742;-1.256;2022-07-24T04:43:40;100851.42;;;18.68;54.95
62055;BME280;48653;51.742;-1.256;2022-07-24T04:46:07;100848.63;;;18.54;55.36
62055;BME280;48653;51.742;-1.256;2022-07-24T04:48:35;100848.46;;;18.94;54.67
62055;BME280;48653;51.742;-1.256;2022-07-24T04:51:02;100844.57;;;18.97;54.36
62055;BME280;48653;51.742;-1.256;2022-07-24T04:53:29;100847.56;;;18.63;55.20
62055;BME280;48653;51.742;-1.256;2022-07-24T04:55:56;100845.46;;;18.62;55.50
62055;BME280;48653;51.742;-1.256;2022-07-24T04:58:26;100839.20;;;18.52;55.89
62055;BME280;48653;51.742;-1.256;2022-07-24T05:00:54;100844.20;;;18.44;55.39
62055;BME280;48653;51.742;-1.256;2022-07-24T05:03:21;100843.03;;;18.42;55.10
62055;BME280;48653;51.742;-1.256;2022-07-24T05:05:48;100842.07;;;18.54;54.83
62055;BME280;48653;51.742;-1.256;2022-07-24T05:08:15;100846.43;;;18.66;54.80
62055;BME280;48653;51.742;-1.256;2022-07-24T05:10:42;100851.16;;;19.07;53.96
62055;BME280;48653;51.742;-1.256;2022-07-24T05:13:09;100850.26;;;19.19;53.72
62055;BME280;48653;51.742;-1.256;2022-07-24T05:15:37;100849.99;;;19.01;53.95
62055;BME280;48653;51.742;-1.256;2022-07-24T05:18:04;100853.28;;;19.20;53.66
62055;BME280;48653;51.742;-1.256;2022-07-24T05:20:31;100861.11;;;19.59;52.79
62055;BME280;48653;51.742;-1.256;2022-07-24T05:22:58;100859.75;;;19.35;52.94
62055;BME280;48653;51.742;-1.256;2022-07-24T05:25:26;100858.79;;;19.08;52.92
62055;BME280;48653;51.742;-1.256;2022-07-24T05:27:53;100857.74;;;19.34;52.52
62055;BME280;48653;51.742;-1.256;2022-07-24T05:30:20;100858.88;;;19.36;52.40
62055;BME280;48653;51.742;-1.256;2022-07-24T05:32:48;100856.94;;;19.33;53.00
62055;BME280;48653;51.742;-1.256;2022-07-24T05:35:15;100855.62;;;19.22;52.70
62055;BME280;48653;51.742;-1.256;2022-07-24T05:37:42;100855.52;;;19.57;52.68
62055;BME280;48653;51.742;-1.256;2022-07-24T05:40:10;100854.69;;;19.65;52.51
62055;BME280;48653;51.742;-1.256;2022-07-24T05:42:38;100851.69;;;19.37;53.25
62055;BME280;48653;51.742;-1.256;2022-07-24T05:45:06;100851.43;;;19.11;52.73
62055;BME280;48653;51.742;-1.256;2022-07-24T05:47:36;100851.92;;;19.45;52.72
62055;BME280;48653;51.742;-1.256;2022-07-24T05:50:06;100846.82;;;19.38;53.14
62055;BME280;48653;51.742;-1.256;2022-07-24T05:52:33;100849.74;;;19.63;52.76
62055;BME280;48653;51.742;-1.256;2022-07-24T05:55:02;100849.99;;;19.75;52.73
62055;BME280;48653;51.742;-1.256;2022-07-24T05:57:30;100839.39;;;19.42;53.06
62055;BME280;48653;51.742;-1.256;2022-07-24T05:59:57;100839.26;;;19.11;53.68
62055;BME280;48653;51.742;-1.256;2022-07-24T06:02:24;100837.28;;;19.28;53.67
62055;BME280;48653;51.742;-1.256;2022-07-24T06:04:52;100829.16;;;19.05;53.69
62055;BME280;48653;51.742;-1.256;2022-07-24T06:07:20;100825.71;;;19.38;53.17
62055;BME280;48653;51.742;-1.256;2022-07-24T06:09:49;100824.01;;;19.36;52.65
62055;BME280;48653;51.742;-1.256;2022-07-24T06:12:22;100823.84;;;19.55;52.67
62055;BME280;48653;51.742;-1.256;2022-07-24T06:14:52;100821.78;;;19.53;52.55
62055;BME280;48653;51.742;-1.256;2022-07-24T06:17:21;100824.64;;;20.16;52.00
62055;BME280;48653;51.742;-1.256;2022-07-24T06:19:49;100822.05;;;19.98;51.84
62055;BME280;48653;51.742;-1.256;2022-07-24T06:22:17;100825.50;;;20.06;51.82
62055;BME280;48653;51.742;-1.256;2022-07-24T06:24:44;100824.06;;;19.84;51.67
62055;BME280;48653;51.742;-1.256;2022-07-24T06:27:11;100823.20;;;20.06;51.57
62055;BME280;48653;51.742;-1.256;2022-07-24T06:29:38;100818.07;;;20.22;51.33
62055;BME280;48653;51.742;-1.256;2022-07-24T06:32:06;100819.54;;;20.11;51.37
62055;BME280;48653;51.742;-1.256;2022-07-24T06:34:34;100813.85;;;20.03;51.74
62055;BME280;48653;51.742;-1.256;2022-07-24T06:37:02;100817.38;;;20.13;51.55
62055;BME280;48653;51.742;-1.256;2022-07-24T06:39:30;100820.65;;;20.28;51.44
62055;BME280;48653;51.742;-1.256;2022-07-24T06:41:57;100821.09;;;20.10;51.68
62055;BME280;48653;51.742;-1.256;2022-07-24T06:44:23;100830.09;;;19.99;51.86
62055;BME280;48653;51.742;-1.256;2022-07-24T06:46:51;100826.06;;;19.71;52.45
62055;BME280;48653;51.742;-1.256;2022-07-24T06:49:20;100828.25;;;19.68;52.52
62055;BME280;48653;51.742;-1.256;2022-07-24T06:51:48;100828.48;;;19.93;52.19
62055;BME280;48653;51.742;-1.256;2022-07-24T06:54:17;100822.43;;;20.36;52.14
62055;BME280;48653;51.742;-1.256;2022-07-24T06:56:44;100824.47;;;20.24;51.95
62055;BME280;48653;51.742;-1.256;2022-07-24T06:59:13;100826.80;;;20.07;51.95
62055;BME280;48653;51.742;-1.256;2022-07-24T07:01:40;100831.05;;;20.15;51.66
62055;BME280;48653;51.742;-1.256;2022-07-24T07:04:07;100828.69;;;20.42;51.16
62055;BME280;48653;51.742;-1.256;2022-07-24T07:06:34;100828.20;;;20.48;51.46
62055;BME280;48653;51.742;-1.256;2022-07-24T07:09:00;100831.75;;;20.38;51.60
62055;BME280;48653;51.742;-1.256;2022-07-24T07:11:27;100832.02;;;20.28;51.34
62055;BME280;48653;51.742;-1.256;2022-07-24T07:13:55;100830.17;;;20.23;51.62
62055;BME280;48653;51.742;-1.256;2022-07-24T07:16:24;100829.84;;;20.59;51.12
62055;BME280;48653;51.742;-1.256;2022-07-24T07:18:53;100831.24;;;20.41;51.35
62055;BME280;48653;51.742;-1.256;2022-07-24T07:21:20;100836.27;;;20.19;51.76
62055;BME280;48653;51.742;-1.256;2022-07-24T07:23:48;100831.50;;;20.02;52.02
62055;BME280;48653;51.742;-1.256;2022-07-24T07:26:15;100828.12;;;19.98;51.99
62055;BME280;48653;51.742;-1.256;2022-07-24T07:28:43;100828.51;;;19.90;52.02
62055;BME280;48653;51.742;-1.256;2022-07-24T07:31:10;100829.71;;;19.99;51.95
62055;BME280;48653;51.742;-1.256;2022-07-24T07:33:37;100825.87;;;19.80;52.29
62055;BME280;48653;51.742;-1.256;2022-07-24T07:36:06;100827.18;;;20.04;52.22
62055;BME280;48653;51.742;-1.256;2022-07-24T07:38:34;100821.90;;;19.85;52.75
62055;BME280;48653;51.742;-1.256;2022-07-24T07:41:02;100821.45;;;20.06;52.19
62055;BME280;48653;51.742;-1.256;2022-07-24T07:43:30;100818.81;;;20.36;52.03
62055;BME280;48653;51.742;-1.256;2022-07-24T07:45:57;100818.29;;;20.20;51.69
62055;BME280;48653;51.742;-1.256;2022-07-24T07:48:24;100810.41;;;20.57;51.39
62055;BME280;48653;51.742;-1.256;2022-07-24T07:50:52;100805.64;;;20.99;50.87
62055;BME280;48653;51.742;-1.256;2022-07-24T07:53:19;100801.49;;;20.51;50.67
62055;BME280;48653;51.742;-1.256;2022-07-24T07:55:46;100804.74;;;20.51;50.89
62055;BME280;48653;51.742;-1.256;2022-07-24T07:58:14;100804.92;;;20.89;50.91
62055;BME280;48653;51.742;-1.256;2022-07-24T08:00:41;100797.42;;;20.70;51.30
62055;BME280;48653;51.742;-1.256;2022-07-24T08:03:08;100795.97;;;21.05;51.39
62055;BME280;48653;51.742;-1.256;2022-07-24T08:05:36;100804.92;;;21.00;51.19
62055;BME280;48653;51.742;-1.256;2022-07-24T08:08:04;100790.95;;;20.98;51.55
62055;BME280;48653;51.742;-1.256;2022-07-24T08:10:31;100793.53;;;20.30;53.03
62055;BME280;48653;51.742;-1.256;2022-07-24T08:12:59;100793.97;;;20.33;52.61
62055;BME280;48653;51.742;-1.256;2022-07-24T08:15:27;100790.72;;;20.78;51.78
62055;BME280;48653;51.742;-1.256;2022-07-24T08:17:57;100786.44;;;20.96;50.95
62055;BME280;48653;51.742;-1.256;2022-07-24T08:20:26;100782.36;;;21.43;50.16
62055;BME280;48653;51.742;-1.256;2022-07-24T08:22:54;100781.62;;;21.30;49.81
62055;BME280;48653;51.742;-1.256;2022-07-24T08:25:22;100778.00;;;21.76;49.41
62055;BME280;48653;51.742;-1.256;2022-07-24T08:27:50;100779.63;;;21.87;48.84
62055;BME280;48653;51.742;-1.256;2022-07-24T08:30:20;100782.89;;;21.89;48.51
62055;BME280;48653;51.742;-1.256;2022-07-24T08:32:48;100782.63;;;22.55;49.00
62055;BME280;48653;51.742;-1.256;2022-07-24T08:35:16;100779.94;;;22.75;47.51
62055;BME280;48653;51.742;-1.256;2022-07-24T08:37:44;100780.78;;;22.92;47.02
62055;BME280;48653;51.742;-1.256;2022-07-24T08:40:12;100780.95;;;23.32;46.45
62055;BME280;48653;51.742;-1.256;2022-07-24T08:42:40;100781.85;;;23.42;46.40
62055;BME280;48653;51.742;-1.256;2022-07-24T08:45:09;100781.63;;;23.87;45.73
62055;BME280;48653;51.742;-1.256;2022-07-24T08:47:38;100776.14;;;24.23;44.55
62055;BME280;48653;51.742;-1.256;2022-07-24T08:50:08;100775.73;;;23.66;44.89
62055;BME280;48653;51.742;-1.256;2022-07-24T08:52:37;100773.38;;;23.95;44.66
62055;BME280;48653;51.742;-1.256;2022-07-24T08:55:06;100779.09;;;23.64;44.34
62055;BME280;48653;51.742;-1.256;2022-07-24T08:57:33;100774.72;;;23.75;44.61
62055;BME280;48653;51.742;-1.256;2022-07-24T09:00:01;100771.43;;;23.88;44.55
62055;BME280;48653;51.742;-1.256;2022-07-24T09:02:38;100766.42;;;23.93;44.84
62055;BME280;48653;51.742;-1.256;2022-07-24T09:05:08;100763.46;;;23.94;44.26
62055;BME280;48653;51.742;-1.256;2022-07-24T09:07:36;100764.28;;;24.47;44.39
62055;BME280;48653;51.742;-1.256;2022-07-24T09:10:04;100765.38;;;24.79;43.47
62055;BME280;48653;51.742;-1.256;2022-07-24T09:12:34;100766.88;;;24.99;42.84
62055;BME280;48653;51.742;-1.256;2022-07-24T09:15:10;100766.35;;;24.43;42.99
62055;BME280;48653;51.742;-1.256;2022-07-24T09:17:48;100756.94;;;24.07;43.46
62055;BME280;48653;51.742;-1.256;2022-07-24T09:20:17;100757.46;;;24.22;43.38
62055;BME280;48653;51.742;-1.256;2022-07-24T09:22:45;100757.02;;;24.45;42.96
62055;BME280;48653;51.742;-1.256;2022-07-24T09:25:14;100748.66;;;24.76;42.67
62055;BME280;48653;51.742;-1.256;2022-07-24T09:27:48;100748.16;;;25.36;42.14
62055;BME280;48653;51.742;-1.256;2022-07-24T09:30:26;100744.71;;;25.25;41.21
62055;BME280;48653;51.742;-1.256;2022-07-24T09:32:57;100747.06;;;25.53;42.10
62055;BME280;48653;51.742;-1.256;2022-07-24T09:35:31;100741.71;;;25.33;41.55
62055;BME280;48653;51.742;-1.256;2022-07-24T09:38:01;100739.33;;;25.81;41.38
62055;BME280;48653;51.742;-1.256;2022-07-24T09:40:30;100738.64;;;25.46;41.04
62055;BME280;48653;51.742;-1.256;2022-07-24T09:43:13;100742.72;;;25.60;40.29
62055;BME280;48653;51.742;-1.256;2022-07-24T09:46:00;100731.48;;;26.01;40.63
62055;BME280;48653;51.742;-1.256;2022-07-24T09:48:31;100737.27;;;27.14;38.96
62055;BME280;48653;51.742;-1.256;2022-07-24T09:51:00;100733.66;;;26.92;38.16
62055;BME280;48653;51.742;-1.256;2022-07-24T09:53:29;100737.47;;;27.51;37.56
62055;BME280;48653;51.742;-1.256;2022-07-24T09:56:00;100730.37;;;27.32;37.67
62055;BME280;48653;51.742;-1.256;2022-07-24T09:58:29;100730.00;;;27.49;37.96
62055;BME280;48653;51.742;-1.256;2022-07-24T10:00:58;100722.96;;;27.43;38.12
62055;BME280;48653;51.742;-1.256;2022-07-24T10:03:28;100724.47;;;28.04;37.10
62055;BME280;48653;51.742;-1.256;2022-07-24T10:05:58;100722.17;;;27.83;37.59
62055;BME280;48653;51.742;-1.256;2022-07-24T10:08:27;100717.93;;;27.62;37.84
62055;BME280;48653;51.742;-1.256;2022-07-24T10:10:55;100716.89;;;27.82;37.74
62055;BME280;48653;51.742;-1.256;2022-07-24T10:13:23;100708.60;;;28.25;37.26
62055;BME280;48653;51.742;-1.256;2022-07-24T10:15:53;100712.36;;;28.19;36.66
62055;BME280;48653;51.742;-1.256;2022-07-24T10:18:21;100717.73;;;28.80;35.79
62055;BME280;48653;51.742;-1.256;2022-07-24T10:21:03;100716.36;;;28.57;36.30
62055;BME280;48653;51.742;-1.256;2022-07-24T10:23:45;100713.81;;;28.18;36.23
62055;BME280;48653;51.742;-1.256;2022-07-24T10:26:31;100710.42;;;27.71;36.80
62055;BME280;48653;51.742;-1.256;2022-07-24T10:29:07;100705.43;;;27.40;37.58
62055;BME280;48653;51.742;-1.256;2022-07-24T10:31:37;100706.95;;;27.68;37.04
62055;BME280;48653;51.742;-1.256;2022-07-24T10:34:11;100700.88;;;28.06;36.31
62055;BME280;48653;51.742;-1.256;2022-07-24T10:36:48;100705.51;;;28.17;36.71
62055;BME280;48653;51.742;-1.256;2022-07-24T10:39:25;100709.29;;;27.83;35.70
62055;BME280;48653;51.742;-1.256;2022-07-24T10:42:04;100709.70;;;28.08;36.30
62055;BME280;48653;51.742;-1.256;2022-07-24T10:44:32;100702.26;;;28.43;34.90
62055;BME280;48653;51.742;-1.256;2022-07-24T10:47:02;100711.85;;;28.83;34.57
62055;BME280;48653;51.742;-1.256;2022-07-24T10:49:39;100715.46;;;28.85;34.28
62055;BME280;48653;51.742;-1.256;2022-07-24T10:52:08;100706.39;;;28.60;33.25
62055;BME280;48653;51.742;-1.256;2022-07-24T10:54:37;100705.00;;;28.81;34.67
62055;BME280;48653;51.742;-1.256;2022-07-24T10:57:05;100699.05;;;29.40;32.97
62055;BME280;48653;51.742;-1.256;2022-07-24T10:59:34;100695.87;;;29.46;31.82
62055;BME280;48653;51.742;-1.256;2022-07-24T11:02:35;100700.00;;;29.17;32.04
62055;BME280;48653;51.742;-1.256;2022-07-24T11:05:36;100704.78;;;28.61;32.34
62055;BME280;48653;51.742;-1.256;2022-07-24T11:08:39;100687.29;;;29.75;32.22
62055;BME280;48653;51.742;-1.256;2022-07-24T11:11:10;100689.52;;;29.66;32.05
62055;BME280;48653;51.742;-1.256;2022-07-24T11:13:43;100684.42;;;29.31;30.26
62055;BME280;48653;51.742;-1.256;2022-07-24T11:16:18;100681.95;;;29.48;30.70
62055;BME280;48653;51.742;-1.256;2022-07-24T11:19:26;100682.34;;;30.13;30.38
62055;BME280;48653;51.742;-1.256;2022-07-24T11:22:11;100678.64;;;30.35;29.40
62055;BME280;48653;51.742;-1.256;2022-07-24T11:25:04;100669.44;;;30.12;29.58
62055;BME280;48653;51.742;-1.256;2022-07-24T11:27:42;100667.42;;;30.82;29.47
62055;BME280;48653;51.742;-1.256;2022-07-24T11:30:10;100664.41;;;31.06;28.40
62055;BME280;48653;51.742;-1.256;2022-07-24T11:32:39;100664.92;;;30.77;29.24
62055;BME280;48653;51.742;-1.256;2022-07-24T11:35:07;100656.05;;;30.73;29.33
62055;BME280;48653;51.742;-1.256;2022-07-24T11:37:36;100650.22;;;30.98;29.59
62055;BME280;48653;51.742;-1.256;2022-07-24T11:40:05;100643.69;;;31.24;29.26
62055;BME280;48653;51.742;-1.256;2022-07-24T11:42:32;100635.02;;;31.55;27.65
62055;BME280;48653;51.742;-1.256;2022-07-24T11:45:00;100633.30;;;31.21;28.84
62055;BME280;48653;51.742;-1.256;2022-07-24T11:47:28;100633.30;;;31.40;27.93
62055;BME280;48653;51.742;-1.256;2022-07-24T11:49:58;100627.89;;;30.72;27.09
62055;BME280;48653;51.742;-1.256;2022-07-24T11:52:27;100634.44;;;30.87;26.51
62055;BME280;48653;51.742;-1.256;2022-07-24T11:54:56;100630.76;;;31.17;26.70
62055;BME280;48653;51.742;-1.256;2022-07-24T11:57:27;100629.06;;;31.32;26.23
62055;BME280;48653;51.742;-1.256;2022-07-24T11:59:55;100622.89;;;31.45;26.48
62055;BME280;48653;51.742;-1.256;2022-07-24T12:02:23;100616.43;;;31.33;25.46
62055;BME280;48653;51.742;-1.256;2022-07-24T12:04:50;100610.64;;;31.05;26.49
62055;BME280;48653;51.742;-1.256;2022-07-24T12:07:20;100607.98;;;31.76;25.58
62055;BME280;48653;51.742;-1.256;2022-07-24T12:09:50;100602.75;;;31.54;26.03
62055;BME280;48653;51.742;-1.256;2022-07-24T12:12:23;100593.90;;;31.36;25.86
62055;BME280;48653;51.742;-1.256;2022-07-24T12:14:53;100594.15;;;31.85;25.45
62055;BME280;48653;51.742;-1.256;2022-07-24T12:17:25;100593.34;;;32.40;25.41
62055;BME280;48653;51.742;-1.256;2022-07-24T12:19:55;100597.09;;;32.06;24.36
62055;BME280;48653;51.742;-1.256;2022-07-24T12:22:24;100592.47;;;32.15;25.57
62055;BME280;48653;51.742;-1.256;2022-07-24T12:24:53;100587.60;;;32.14;26.30
62055;BME280;48653;51.742;-1.256;2022-07-24T12:28:03;100591.62;;;32.77;25.23
62055;BME280;48653;51.742;-1.256;2022-07-24T12:30:32;100592.12;;;32.16;23.43
62055;BME280;48653;51.742;-1.256;2022-07-24T12:33:02;100591.10;;;31.28;22.20
62055;BME280;48653;51.742;-1.256;2022-07-24T12:35:31;100589.46;;;31.71;23.14
62055;BME280;48653;51.742;-1.256;2022-07-24T12:38:00;100580.83;;;31.76;23.84
62055;BME280;48653;51.742;-1.256;2022-07-24T12:40:31;100591.63;;;30.93;23.92
62055;BME280;48653;51.742;-1.256;2022-07-24T12:43:02;100576.34;;;30.97;24.34
62055;BME280;48653;51.742;-1.256;2022-07-24T12:45:29;100578.75;;;31.20;23.75
62055;BME280;48653;51.742;-1.256;2022-07-24T12:48:29;100570.11;;;30.88;24.57
62055;BME280;48653;51.742;-1.256;2022-07-24T12:51:00;100562.68;;;31.47;23.29